GBAFG LEPA-LEPA
Flight info
| Callsign | GBAFG |
|---|---|
| Flight time | N/A |
| Altitude | 3000 |
| Route | VFR TOURIST SIGHTSEEING |
| Aircraft | BE36/L-SBDFGM3RWXY/LB1 |
Departure
| Time | 2026-04-30 22:11 |
|---|---|
| Airport | Palma de Mallorca Airport (LEPA) |
Arrival
| Time | N/A |
|---|---|
| Airport | Palma de Mallorca Airport (LEPA) |
| Time | Latitude | Longitude | Altitude | Speed | Heading |
|---|---|---|---|---|---|
| 2026-04-30 22:00 | 39.54434 | 2.71188 | 17 ft | 0 kts | 233° |
| 2026-04-30 22:00 | 39.54438 | 2.71183 | 16 ft | 7 kts | 16° |
| 2026-04-30 22:01 | 39.54490 | 2.71214 | 17 ft | 6 kts | 295° |
| 2026-04-30 22:01 | 39.54506 | 2.71172 | 16 ft | 5 kts | 319° |
| 2026-04-30 22:01 | 39.54545 | 2.71164 | 16 ft | 5 kts | 7° |
| 2026-04-30 22:01 | 39.54570 | 2.71169 | 16 ft | 0 kts | 3° |
| 2026-04-30 22:02 | 39.54575 | 2.71169 | 16 ft | 6 kts | 5° |
| 2026-04-30 22:02 | 39.54632 | 2.71157 | 16 ft | 9 kts | 329° |
| 2026-04-30 22:02 | 39.54640 | 2.71151 | 16 ft | 0 kts | 328° |
| 2026-04-30 22:10 | 39.54641 | 2.71150 | 16 ft | 2 kts | 328° |
| 2026-04-30 22:10 | 39.54714 | 2.71124 | 16 ft | 16 kts | 22° |
| 2026-04-30 22:10 | 39.54826 | 2.71304 | 17 ft | 45 kts | 60° |
| 2026-04-30 22:11 | 39.55373 | 2.72445 | 244 ft | 96 kts | 60° |
| 2026-04-30 22:11 | 39.55716 | 2.73209 | 639 ft | 98 kts | 62° |
| 2026-04-30 22:11 | 39.56017 | 2.74017 | 979 ft | 104 kts | 65° |
| 2026-04-30 22:12 | 39.56306 | 2.74853 | 1448 ft | 98 kts | 71° |
| 2026-04-30 22:12 | 39.56297 | 2.75714 | 1836 ft | 105 kts | 124° |
| 2026-04-30 22:12 | 39.55589 | 2.76148 | 2146 ft | 118 kts | 153° |
| 2026-04-30 22:12 | 39.54794 | 2.76547 | 2461 ft | 125 kts | 153° |
| 2026-04-30 22:13 | 39.53953 | 2.77005 | 2675 ft | 138 kts | 155° |